createdAt,value
2022-08-30T00:01:25.450Z,95697.31
2022-08-30T00:03:54.970Z,95700.97
2022-08-30T00:06:24.501Z,95702.91
2022-08-30T00:08:53.183Z,95696.72
2022-08-30T00:11:24.876Z,95696.72
2022-08-30T00:13:54.541Z,95700.44
2022-08-30T00:16:23.843Z,95699.75
2022-08-30T00:18:51.683Z,95705.25
2022-08-30T00:21:20.002Z,95703.56
2022-08-30T00:23:47.845Z,95699.44
2022-08-30T00:26:15.608Z,95699.56
2022-08-30T00:28:44.717Z,95692.50
2022-08-30T00:31:15.178Z,95699.38
2022-08-30T00:33:43.360Z,95698.63
2022-08-30T00:36:11.120Z,95692.91
2022-08-30T00:38:38.871Z,95696.72
2022-08-30T00:41:06.959Z,95700.06
2022-08-30T00:43:36.847Z,95698.53
2022-08-30T00:46:08.250Z,95693.13
2022-08-30T00:48:40.751Z,95694.59
2022-08-30T00:51:11.323Z,95679.88
2022-08-30T00:53:43.950Z,95682.84
2022-08-30T00:56:14.426Z,95681.19
2022-08-30T00:58:46.829Z,95684.56
2022-08-30T01:01:17.196Z,95684.03
2022-08-30T01:03:45.446Z,95681.63
2022-08-30T01:06:15.587Z,95681.63
2022-08-30T01:08:44.114Z,95683.00
2022-08-30T01:11:13.835Z,95686.88
2022-08-30T01:13:42.043Z,95678.31
2022-08-30T01:16:10.340Z,95682.84
2022-08-30T01:18:39.811Z,95678.41
2022-08-30T01:21:17.881Z,95678.13
2022-08-30T01:23:50.231Z,95681.78
2022-08-30T01:26:19.208Z,95682.66
2022-08-30T01:28:54.721Z,95683.69
2022-08-30T01:31:23.241Z,95684.69
2022-08-30T01:33:52.110Z,95685.09
2022-08-30T01:36:20.989Z,95679.72
2022-08-30T01:38:53.353Z,95683.91
2022-08-30T01:41:24.101Z,95681.06
2022-08-30T01:43:54.726Z,95679.50
2022-08-30T01:46:24.728Z,95682.47
2022-08-30T01:48:54.557Z,95689.41
2022-08-30T01:51:25.090Z,95683.06
2022-08-30T01:53:54.880Z,95684.28
2022-08-30T01:56:23.077Z,95685.75
2022-08-30T01:58:51.393Z,95685.91
2022-08-30T02:01:21.662Z,95690.97
2022-08-30T02:03:49.895Z,95686.78
2022-08-30T02:06:20.410Z,95682.53
2022-08-30T02:08:48.830Z,95683.06
2022-08-30T02:11:19.274Z,95678.88
2022-08-30T02:13:47.563Z,95678.53
2022-08-30T02:16:18.067Z,95678.44
2022-08-30T02:18:47.070Z,95680.72
2022-08-30T02:21:15.849Z,95681.03
2022-08-30T02:23:44.000Z,95689.34
2022-08-30T02:26:12.149Z,95683.75
2022-08-30T02:28:42.743Z,95680.47
2022-08-30T02:31:19.546Z,95676.34
2022-08-30T02:33:50.089Z,95679.72
2022-08-30T02:36:17.934Z,95676.16
2022-08-30T02:38:46.211Z,95678.44
2022-08-30T02:41:14.004Z,95676.13
2022-08-30T02:43:43.102Z,95676.16
2022-08-30T02:46:11.121Z,95676.59
2022-08-30T02:48:39.529Z,95680.00
2022-08-30T02:51:11.101Z,95683.59
2022-08-30T02:53:40.080Z,95679.47
2022-08-30T02:56:08.774Z,95688.78
2022-08-30T02:58:36.954Z,95687.31
2022-08-30T03:01:07.173Z,95686.78
2022-08-30T03:03:34.969Z,95687.66
2022-08-30T03:06:03.552Z,95690.00
2022-08-30T03:08:32.196Z,95696.72
2022-08-30T03:11:00.050Z,95694.38
2022-08-30T03:13:27.990Z,95692.38
2022-08-30T03:15:55.717Z,95686.78
2022-08-30T03:18:26.532Z,95688.78
2022-08-30T03:20:55.028Z,95691.75
2022-08-30T03:23:23.626Z,95697.53
2022-08-30T03:25:51.536Z,95702.66
2022-08-30T03:28:19.285Z,95694.00
2022-08-30T03:30:48.064Z,95703.06
2022-08-30T03:33:16.071Z,95694.16
2022-08-30T03:35:48.072Z,95688.91
2022-08-30T03:38:15.757Z,95690.22
2022-08-30T03:40:43.932Z,95692.88
2022-08-30T03:43:11.847Z,95704.72
2022-08-30T03:45:40.633Z,95697.19
2022-08-30T03:48:08.474Z,95696.16
2022-08-30T03:50:36.846Z,95692.19
2022-08-30T03:53:06.067Z,95689.88
2022-08-30T03:55:34.286Z,95683.63
2022-08-30T03:58:02.080Z,95688.06
2022-08-30T04:00:29.921Z,95687.94
2022-08-30T04:02:57.647Z,95693.38
2022-08-30T04:05:25.550Z,95690.06
2022-08-30T04:07:53.246Z,95683.81
2022-08-30T04:10:22.615Z,95697.50
2022-08-30T04:12:50.897Z,95698.56
2022-08-30T04:15:19.882Z,95701.19
2022-08-30T04:17:47.931Z,95712.72
2022-08-30T04:20:16.347Z,95710.09
2022-08-30T04:22:44.089Z,95716.97
2022-08-30T04:25:15.663Z,95710.09
2022-08-30T04:27:45.954Z,95712.72
2022-08-30T04:30:15.530Z,95716.81
2022-08-30T04:32:43.419Z,95724.56
2022-08-30T04:35:12.074Z,95721.59
2022-08-30T04:37:40.289Z,95716.16
2022-08-30T04:40:09.540Z,95728.31
2022-08-30T04:42:37.710Z,95720.28
2022-08-30T04:45:10.891Z,95724.03
2022-08-30T04:47:39.884Z,95725.31
2022-08-30T04:50:08.992Z,95729.94
2022-08-30T04:52:36.729Z,95735.38
2022-08-30T04:55:05.222Z,95719.41
2022-08-30T04:57:33.267Z,95736.38
2022-08-30T05:00:00.981Z,95743.78
2022-08-30T05:02:30.263Z,95739.66
2022-08-30T05:05:15.563Z,95741.13
2022-08-30T05:07:43.339Z,95739.25
2022-08-30T05:10:11.742Z,95741.50
2022-08-30T05:12:39.802Z,95748.69
2022-08-30T05:15:08.571Z,95757.59
2022-08-30T05:17:37.758Z,95760.72
2022-08-30T05:20:06.547Z,95757.78
2022-08-30T05:22:36.841Z,95761.88
2022-08-30T05:25:05.118Z,95765.47
2022-08-30T05:27:33.244Z,95763.50
2022-08-30T05:30:06.330Z,95764.66
2022-08-30T05:32:34.067Z,95761.13
2022-08-30T05:35:03.195Z,95762.97
2022-08-30T05:37:30.882Z,95752.16
2022-08-30T05:39:59.274Z,95747.44
2022-08-30T05:42:27.081Z,95745.91
2022-08-30T05:44:55.732Z,95746.56
2022-08-30T05:47:23.811Z,95747.06
2022-08-30T05:49:51.766Z,95753.03
2022-08-30T05:52:21.211Z,95748.22
2022-08-30T05:54:54.367Z,95757.41
2022-08-30T05:57:22.621Z,95756.09
2022-08-30T05:59:50.300Z,95741.34
2022-08-30T06:02:18.272Z,95748.56
2022-08-30T06:04:46.019Z,95751.31
2022-08-30T06:07:15.753Z,95754.34
2022-08-30T06:09:46.296Z,95755.97
2022-08-30T06:12:13.983Z,95753.03
2022-08-30T06:14:41.686Z,95750.56
2022-08-30T06:17:09.436Z,95754.69
2022-08-30T06:19:37.411Z,95758.84
2022-08-30T06:22:05.337Z,95756.44
2022-08-30T06:24:55.840Z,95758.84
2022-08-30T06:27:22.151Z,95758.31
2022-08-30T06:29:52.272Z,95764.28
2022-08-30T06:32:20.004Z,95757.13
2022-08-30T06:34:48.286Z,95755.06
2022-08-30T06:37:29.129Z,95758.72
2022-08-30T06:39:58.023Z,95758.19
2022-08-30T06:42:31.920Z,95754.50
2022-08-30T06:45:00.311Z,95761.25
2022-08-30T06:47:29.111Z,95759.63
2022-08-30T06:49:57.899Z,95760.31
2022-08-30T06:52:26.405Z,95757.16
2022-08-30T06:54:55.319Z,95755.38
2022-08-30T06:57:22.998Z,95765.91
2022-08-30T06:59:57.318Z,95756.97
2022-08-30T07:02:26.120Z,95767.50
2022-08-30T07:04:53.933Z,95761.19
2022-08-30T07:07:21.693Z,95761.75
2022-08-30T07:09:49.386Z,95766.84
2022-08-30T07:12:17.389Z,95753.94
2022-08-30T07:14:45.153Z,95750.69
2022-08-30T07:17:34.709Z,95746.75
2022-08-30T07:20:03.211Z,95756.69
2022-08-30T07:22:30.988Z,95752.22
2022-08-30T07:24:58.741Z,95762.31
2022-08-30T07:27:26.467Z,95753.97
2022-08-30T07:29:54.172Z,95756.50
2022-08-30T07:32:23.251Z,95748.94
2022-08-30T07:34:51.749Z,95762.16
2022-08-30T07:37:19.707Z,95755.03
2022-08-30T07:39:48.164Z,95753.22
2022-08-30T07:42:16.165Z,95750.03
2022-08-30T07:44:43.963Z,95755.97
2022-08-30T07:47:12.239Z,95751.97
2022-08-30T07:49:41.296Z,95751.09
2022-08-30T07:52:09.014Z,95752.09
2022-08-30T07:54:36.875Z,95756.03
2022-08-30T07:57:04.646Z,95762.75
2022-08-30T07:59:35.580Z,95754.69
2022-08-30T08:02:04.148Z,95749.84
2022-08-30T08:04:33.169Z,95746.03
2022-08-30T08:07:02.287Z,95746.66
2022-08-30T08:09:30.035Z,95750.41
2022-08-30T08:11:57.759Z,95749.13
2022-08-30T08:14:25.466Z,95755.03
2022-08-30T08:16:53.596Z,95758.06
2022-08-30T08:19:21.262Z,95754.78
2022-08-30T08:21:55.702Z,95757.44
2022-08-30T08:24:38.262Z,95753.13
2022-08-30T08:27:06.317Z,95753.88
2022-08-30T08:29:34.163Z,95749.78
2022-08-30T08:32:01.877Z,95754.59
2022-08-30T08:34:29.616Z,95747.88
2022-08-30T08:36:57.518Z,95758.72
2022-08-30T08:39:25.227Z,95760.00
2022-08-30T08:42:05.007Z,95756.63
2022-08-30T08:44:45.073Z,95757.41
2022-08-30T08:47:16.413Z,95765.19
2022-08-30T08:49:47.474Z,95769.69
2022-08-30T08:52:38.214Z,95770.34
2022-08-30T08:55:10.785Z,95766.56
2022-08-30T08:57:40.191Z,95762.47
2022-08-30T09:00:10.148Z,95762.66
2022-08-30T09:02:42.661Z,95761.28
2022-08-30T09:05:14.579Z,95761.91
2022-08-30T09:07:48.080Z,95756.47
2022-08-30T09:10:18.346Z,95747.72
2022-08-30T09:12:55.719Z,95755.34
2022-08-30T09:15:29.685Z,95753.44
2022-08-30T09:18:01.362Z,95758.91
2022-08-30T09:20:34.058Z,95746.50
2022-08-30T09:23:22.585Z,95751.59
2022-08-30T09:25:54.762Z,95756.63
2022-08-30T09:28:27.008Z,95751.06
2022-08-30T09:31:11.890Z,95751.06
2022-08-30T09:33:40.179Z,95741.50
2022-08-30T09:36:15.739Z,95732.72
2022-08-30T09:38:43.464Z,95730.72
2022-08-30T09:41:38.005Z,95739.56
2022-08-30T09:44:10.806Z,95729.69
2022-08-30T09:46:47.184Z,95721.13
2022-08-30T09:49:37.800Z,95732.34
2022-08-30T09:52:26.253Z,95721.19
2022-08-30T09:55:10.822Z,95722.31
2022-08-30T09:57:45.996Z,95728.25
2022-08-30T10:00:19.567Z,95723.16
2022-08-30T10:03:09.166Z,95716.38
2022-08-30T10:05:47.511Z,95709.41
2022-08-30T10:08:25.104Z,95709.50
2022-08-30T10:10:56.046Z,95706.22
2022-08-30T10:13:44.193Z,95701.47
2022-08-30T10:16:22.744Z,95701.13
2022-08-30T10:19:04.194Z,95703.91
2022-08-30T10:21:38.165Z,95701.69
2022-08-30T10:24:11.365Z,95696.28
2022-08-30T10:26:44.527Z,95692.34
2022-08-30T10:29:17.426Z,95694.75
2022-08-30T10:31:52.343Z,95691.03
2022-08-30T10:34:26.680Z,95681.47
2022-08-30T10:36:59.202Z,95688.38
2022-08-30T10:39:32.919Z,95685.38
2022-08-30T10:42:06.375Z,95686.19
2022-08-30T10:44:41.337Z,95687.25
2022-08-30T10:47:23.841Z,95680.47
2022-08-30T10:49:57.198Z,95683.22
2022-08-30T10:52:34.189Z,95679.91
2022-08-30T10:55:08.494Z,95678.84
2022-08-30T10:57:38.502Z,95682.88
2022-08-30T11:00:13.907Z,95671.81
2022-08-30T11:03:25.144Z,95671.66
2022-08-30T11:06:17.210Z,95679.09
2022-08-30T11:09:09.741Z,95673.84
2022-08-30T11:11:56.727Z,95670.72
2022-08-30T11:14:25.925Z,95671.19
2022-08-30T11:16:56.444Z,95670.81
2022-08-30T11:19:32.188Z,95671.41
2022-08-30T11:22:14.110Z,95672.44
2022-08-30T11:25:11.377Z,95665.31
2022-08-30T11:27:51.796Z,95659.06
2022-08-30T11:31:04.401Z,95669.50
2022-08-30T11:33:46.126Z,95653.75
2022-08-30T11:37:09.725Z,95653.13
2022-08-30T11:40:14.177Z,95657.78
2022-08-30T11:42:48.008Z,95646.94
2022-08-30T11:45:45.046Z,95654.44
2022-08-30T11:48:53.491Z,95658.75
2022-08-30T11:52:23.715Z,95660.50
2022-08-30T11:54:55.739Z,95650.69
2022-08-30T11:57:32.234Z,95659.59
2022-08-30T12:00:08.795Z,95651.00
2022-08-30T12:02:46.773Z,95655.13
2022-08-30T12:05:51.319Z,95653.69
2022-08-30T12:08:58.003Z,95656.72
2022-08-30T12:11:55.027Z,95648.81
2022-08-30T12:14:54.469Z,95649.31
2022-08-30T12:17:48.166Z,95649.66
2022-08-30T12:20:22.438Z,95649.88
2022-08-30T12:22:51.161Z,95646.78
2022-08-30T12:25:26.350Z,95641.09
2022-08-30T12:28:14.109Z,95637.69
2022-08-30T12:30:46.465Z,95637.44
2022-08-30T12:33:28.993Z,95642.94
2022-08-30T12:35:59.301Z,95638.88
2022-08-30T12:38:28.352Z,95640.81
2022-08-30T12:41:00.197Z,95644.06
2022-08-30T12:43:40.259Z,95632.41
2022-08-30T12:46:12.793Z,95634.44
2022-08-30T12:48:44.757Z,95632.59
2022-08-30T12:51:34.874Z,95629.34
2022-08-30T12:54:10.270Z,95623.38
2022-08-30T12:56:56.830Z,95620.06
2022-08-30T12:59:54.141Z,95629.22
2022-08-30T13:02:27.259Z,95629.19
2022-08-30T13:04:57.254Z,95625.97
2022-08-30T13:07:31.078Z,95615.56
2022-08-30T13:10:05.048Z,95621.72
2022-08-30T13:12:34.962Z,95615.56
2022-08-30T13:15:17.635Z,95617.06
2022-08-30T13:17:47.694Z,95614.81
2022-08-30T13:20:25.862Z,95606.66
2022-08-30T13:23:06.794Z,95602.63
2022-08-30T13:25:35.458Z,95602.81
2022-08-30T13:28:05.407Z,95597.72
2022-08-30T13:30:33.888Z,95591.78
2022-08-30T13:33:03.406Z,95592.41
2022-08-30T13:35:32.646Z,95586.88
2022-08-30T13:38:04.121Z,95577.69
2022-08-30T13:40:31.942Z,95578.72
2022-08-30T13:42:59.676Z,95578.91
2022-08-30T13:45:43.190Z,95572.81
2022-08-30T13:48:15.282Z,95583.25
2022-08-30T13:50:45.388Z,95577.94
2022-08-30T13:53:13.274Z,95582.84
2022-08-30T13:55:42.537Z,95582.19
2022-08-30T13:58:13.273Z,95580.97
2022-08-30T14:00:41.683Z,95576.06
2022-08-30T14:03:09.404Z,95565.63
2022-08-30T14:05:49.533Z,95558.00
2022-08-30T14:11:09.283Z,95557.97
2022-08-30T14:13:37.445Z,95559.09
2022-08-30T14:18:56.938Z,95566.94
2022-08-30T14:21:26.544Z,95561.19
2022-08-30T14:23:55.938Z,95557.88
2022-08-30T14:26:33.196Z,95557.88
2022-08-30T14:29:02.468Z,95559.00
2022-08-30T14:31:32.745Z,95552.06
2022-08-30T14:34:01.871Z,95556.34
2022-08-30T14:36:33.190Z,95551.31
2022-08-30T14:39:01.674Z,95549.50
2022-08-30T14:41:29.517Z,95535.72
2022-08-30T14:43:57.261Z,95548.78
2022-08-30T14:46:26.723Z,95541.19
2022-08-30T14:48:55.229Z,95532.38
2022-08-30T14:51:24.503Z,95533.19
2022-08-30T14:53:54.606Z,95529.25
2022-08-30T14:58:59.748Z,95521.28
2022-08-30T15:01:27.201Z,95521.06
2022-08-30T15:03:53.598Z,95525.13
2022-08-30T15:06:22.281Z,95522.47
2022-08-30T15:08:48.682Z,95518.72
2022-08-30T15:11:18.654Z,95510.47
2022-08-30T15:13:45.918Z,95504.09
2022-08-30T15:16:16.103Z,95506.78
2022-08-30T15:23:45.504Z,95503.00
2022-08-30T15:26:11.855Z,95497.34
2022-08-30T15:28:38.678Z,95501.75
2022-08-30T15:31:08.970Z,95501.88
2022-08-30T15:33:36.362Z,95494.34
2022-08-30T15:36:06.278Z,95496.47
2022-08-30T15:38:33.097Z,95489.94
2022-08-30T15:41:03.468Z,95490.63
2022-08-30T15:48:28.571Z,95485.75
2022-08-30T15:50:56.795Z,95491.44
2022-08-30T15:53:23.385Z,95486.66
2022-08-30T15:55:49.937Z,95476.13
2022-08-30T15:58:17.266Z,95479.63
2022-08-30T16:00:45.137Z,95481.56
2022-08-30T16:03:11.769Z,95486.47
2022-08-30T16:05:39.096Z,95476.53
2022-08-30T16:13:09.449Z,95476.69
2022-08-30T16:15:38.507Z,95468.44
2022-08-30T16:18:05.507Z,95472.72
2022-08-30T16:20:31.967Z,95467.66
2022-08-30T16:22:58.256Z,95464.69
2022-08-30T16:25:24.847Z,95471.75
2022-08-30T16:28:06.167Z,95460.59
2022-08-30T16:30:37.028Z,95471.59
2022-08-30T16:38:02.100Z,95456.09
2022-08-30T16:40:29.183Z,95455.22
2022-08-30T16:42:55.705Z,95457.28
2022-08-30T16:45:22.425Z,95456.03
2022-08-30T16:47:50.369Z,95464.53
2022-08-30T16:50:20.783Z,95466.63
2022-08-30T16:52:47.324Z,95458.84
2022-08-30T16:55:14.701Z,95465.59
2022-08-30T17:02:53.532Z,95467.66
2022-08-30T17:05:20.771Z,95472.88
2022-08-30T17:07:47.417Z,95463.66
2022-08-30T17:10:14.375Z,95462.28
2022-08-30T17:12:41.884Z,95460.22
2022-08-30T17:15:13.693Z,95460.53
2022-08-30T17:17:43.335Z,95457.94
2022-08-30T17:26:41.917Z,95468.59
2022-08-30T17:29:08.465Z,95465.13
2022-08-30T17:31:35.232Z,95470.09
2022-08-30T17:34:05.020Z,95464.63
2022-08-30T17:36:31.614Z,95462.56
2022-08-30T17:38:58.855Z,95467.44
2022-08-30T17:41:25.537Z,95457.03
2022-08-30T17:49:00.952Z,95467.13
2022-08-30T17:51:28.680Z,95470.63
2022-08-30T17:53:55.046Z,95486.13
2022-08-30T17:56:21.690Z,95491.47
2022-08-30T17:58:49.697Z,95490.50
2022-08-30T18:01:17.736Z,95494.22
2022-08-30T18:03:45.573Z,95492.63
2022-08-30T18:12:33.957Z,95504.28
2022-08-30T18:15:00.824Z,95499.16
2022-08-30T18:17:27.689Z,95507.75
2022-08-30T18:19:54.045Z,95511.03
2022-08-30T18:22:24.542Z,95518.44
2022-08-30T18:24:51.088Z,95520.50
2022-08-30T18:27:17.735Z,95523.78
2022-08-30T18:30:03.968Z,95536.00
2022-08-30T18:32:35.286Z,95537.22
2022-08-30T18:35:06.759Z,95539.50
2022-08-30T18:37:37.444Z,95531.31
2022-08-30T18:40:06.506Z,95535.22
2022-08-30T18:42:37.893Z,95537.44
2022-08-30T18:45:14.498Z,95527.03
2022-08-30T18:47:43.628Z,95533.97
2022-08-30T18:50:12.485Z,95528.66
2022-08-30T18:52:40.478Z,95532.53
2022-08-30T18:55:09.223Z,95532.97
2022-08-30T18:57:37.166Z,95535.81
2022-08-30T19:00:09.612Z,95531.72
2022-08-30T19:02:37.707Z,95526.63
2022-08-30T19:05:07.032Z,95528.84
2022-08-30T19:07:37.486Z,95520.91
2022-08-30T19:10:07.258Z,95528.44
2022-08-30T19:12:40.710Z,95534.59
2022-08-30T19:15:11.766Z,95526.84
2022-08-30T19:17:40.399Z,95527.44
2022-08-30T19:20:10.074Z,95527.03
2022-08-30T19:23:08.554Z,95530.91
2022-08-30T19:25:26.934Z,95525.19
2022-08-30T19:27:56.965Z,95520.66
2022-08-30T19:30:29.915Z,95519.44
2022-08-30T19:32:58.221Z,95520.44
2022-08-30T19:35:26.108Z,95525.78
2022-08-30T19:37:53.949Z,95527.44
2022-08-30T19:40:23.059Z,95532.75
2022-08-30T19:42:51.507Z,95526.63
2022-08-30T19:45:21.750Z,95540.91
2022-08-30T19:47:53.336Z,95542.09
2022-08-30T19:50:22.496Z,95544.50
2022-08-30T19:52:54.237Z,95537.75
2022-08-30T19:55:30.284Z,95541.22
2022-08-30T19:57:59.646Z,95545.47
2022-08-30T20:00:30.668Z,95539.75
2022-08-30T20:03:01.944Z,95540.75
2022-08-30T20:05:30.280Z,95538.28
2022-08-30T20:07:58.246Z,95542.16
2022-08-30T20:10:26.528Z,95542.38
2022-08-30T20:12:54.438Z,95548.28
2022-08-30T20:15:22.489Z,95543.56
2022-08-30T20:18:13.575Z,95530.28
2022-08-30T20:20:39.776Z,95534.78
2022-08-30T20:23:07.526Z,95534.91
2022-08-30T20:24:23.738Z,95463.03
2022-08-30T20:25:35.999Z,95535.31
2022-08-30T20:28:04.437Z,95526.16
2022-08-30T20:30:33.278Z,95528.97
2022-08-30T20:33:06.903Z,95527.09
2022-08-30T20:35:36.394Z,95524.22
2022-08-30T20:38:06.523Z,95517.69
2022-08-30T20:40:36.001Z,95522.38
2022-08-30T20:43:04.232Z,95527.09
2022-08-30T20:45:34.191Z,95534.88
2022-08-30T20:48:03.111Z,95531.16
2022-08-30T20:50:31.149Z,95536.00
2022-08-30T20:52:58.884Z,95548.19
2022-08-30T20:55:28.114Z,95541.44
2022-08-30T21:00:24.717Z,95528.78
2022-08-30T21:02:54.620Z,95537.97
2022-08-30T21:05:22.433Z,95533.03
2022-08-30T21:07:50.135Z,95531.22
2022-08-30T21:10:23.096Z,95537.34
2022-08-30T21:12:52.803Z,95526.91
2022-08-30T21:15:36.711Z,95525.47
2022-08-30T21:18:05.929Z,95529.53
2022-08-30T21:20:33.818Z,95523.81
2022-08-30T21:23:01.483Z,95528.66
2022-08-30T21:25:30.959Z,95533.22
2022-08-30T21:28:00.354Z,95531.56
2022-08-30T21:30:28.094Z,95526.59
2022-08-30T21:32:59.803Z,95525.00
2022-08-30T21:35:45.978Z,95531.25
2022-08-30T21:38:14.247Z,95527.75
2022-08-30T21:40:42.094Z,95531.59
2022-08-30T21:43:11.289Z,95526.88
2022-08-30T21:45:39.427Z,95532.34
2022-08-30T21:48:07.887Z,95536.22
2022-08-30T21:50:35.987Z,95534.94
2022-08-30T21:53:05.748Z,95541.63
2022-08-30T21:55:33.419Z,95539.56
2022-08-30T21:58:01.194Z,95546.88
2022-08-30T22:00:33.572Z,95546.06
2022-08-30T22:03:01.832Z,95538.69
2022-08-30T22:05:29.612Z,95539.72
2022-08-30T22:07:57.266Z,95542.97
2022-08-30T22:10:25.279Z,95544.84
2022-08-30T22:12:53.000Z,95550.91
2022-08-30T22:15:20.826Z,95548.53
2022-08-30T22:17:49.931Z,95551.91
2022-08-30T22:20:18.645Z,95554.97
2022-08-30T22:22:46.712Z,95542.28
2022-08-30T22:25:14.667Z,95541.41
2022-08-30T22:27:42.363Z,95539.13
2022-08-30T22:30:11.130Z,95542.59
2022-08-30T22:32:38.870Z,95545.09
2022-08-30T22:35:09.222Z,95545.88
2022-08-30T22:37:36.940Z,95543.00
2022-08-30T22:40:05.751Z,95544.88
2022-08-30T22:47:34.818Z,95540.94
2022-08-30T22:50:01.091Z,95545.75
2022-08-30T22:52:27.395Z,95543.06
2022-08-30T22:54:53.783Z,95542.38
2022-08-30T22:57:23.132Z,95546.22
2022-08-30T22:59:51.138Z,95546.16
2022-08-30T23:02:17.556Z,95543.91
2022-08-30T23:04:45.037Z,95548.50
2022-08-30T23:12:15.338Z,95541.75
2022-08-30T23:14:41.677Z,95545.84
2022-08-30T23:17:08.065Z,95541.56
2022-08-30T23:19:34.325Z,95540.94
2022-08-30T23:22:01.110Z,95534.63
2022-08-30T23:24:46.308Z,95531.41
2022-08-30T23:27:34.749Z,95537.25
2022-08-30T23:30:19.501Z,95531.13
2022-08-30T23:38:25.945Z,95518.13
2022-08-30T23:41:10.187Z,95507.94
2022-08-30T23:43:55.210Z,95506.00
2022-08-30T23:46:40.586Z,95509.00
2022-08-30T23:49:24.951Z,95501.22
2022-08-30T23:52:09.257Z,95508.59
2022-08-30T23:54:57.162Z,95502.88
